Time;durP1;ratioP1;P1;durP2;ratioP2;P2;SDS_P1;SDS_P2;PMS_P1;PMS_P2;Temp;Humidity;BMP_temperature;BMP_pressure;BME280_temperature;BME280_humidity;BME280_pressure;Samples;Min_cycle;Max_cycle;Signal;HPM_P1;HPM_P2
2022/05/18 00:01:14;;;;;;;0.93;0.93;;;18.90;99.90;;;;;;5051835;28;20239;-67
2022/05/18 00:03:43;;;;;;;1.00;1.00;;;18.90;99.90;;;;;;5051010;28;20208;-69
2022/05/18 00:06:11;;;;;;;0.90;0.90;;;18.90;99.90;;;;;;5036373;28;20294;-69
2022/05/18 00:08:38;;;;;;;0.80;0.80;;;18.90;99.90;;;;;;5050933;28;20208;-69
2022/05/18 00:11:08;;;;;;;1.20;1.20;;;18.80;99.90;;;;;;5070310;28;20326;-71
2022/05/18 00:13:35;;;;;;;0.90;0.90;;;18.80;99.90;;;;;;5070744;28;20294;-69
2022/05/18 00:16:05;;;;;;;0.90;0.90;;;18.80;99.90;;;;;;5070325;28;20238;-68
2022/05/18 00:18:31;;;;;;;1.10;1.00;;;18.70;99.90;;;;;;5070649;28;20301;-69
2022/05/18 00:20:59;;;;;;;0.90;0.90;;;18.70;99.90;;;;;;5069784;28;20230;-66
2022/05/18 00:23:26;;;;;;;0.80;0.80;;;18.70;99.90;;;;;;5070251;28;20199;-69
2022/05/18 00:25:52;;;;;;;0.80;0.80;;;18.70;99.90;;;;;;5070470;28;20207;-68
2022/05/18 00:28:19;;;;;;;1.00;1.00;;;18.70;99.90;;;;;;5070112;28;20294;-69
2022/05/18 00:30:46;;;;;;;0.80;0.80;;;18.60;99.90;;;;;;5047588;28;20316;-69
2022/05/18 00:33:15;;;;;;;0.88;0.88;;;18.70;99.90;;;;;;5051285;28;20294;-68
2022/05/18 00:35:42;;;;;;;1.08;0.90;;;18.70;99.90;;;;;;5050777;28;20228;-68
2022/05/18 00:38:10;;;;;;;0.80;0.80;;;18.60;99.90;;;;;;5051577;28;20323;-67
2022/05/18 00:40:40;;;;;;;1.17;0.80;;;18.60;99.90;;;;;;5050596;28;20326;-68
2022/05/18 00:43:14;;;;;;;0.90;0.90;;;18.70;99.90;;;;;;5061713;28;20954;-68
2022/05/18 00:45:41;;;;;;;0.88;0.88;;;18.70;99.90;;;;;;5071179;28;20232;-67
2022/05/18 00:48:08;;;;;;;0.90;0.90;;;18.70;99.90;;;;;;5051186;28;20291;-70
2022/05/18 00:50:38;;;;;;;0.88;0.88;;;18.70;99.90;;;;;;5050235;28;20251;-68
2022/05/18 00:53:10;;;;;;;0.88;0.88;;;18.70;99.90;;;;;;5051016;28;20242;-68
2022/05/18 00:55:40;;;;;;;0.75;0.75;;;18.60;99.90;;;;;;5051221;28;20626;-71
2022/05/18 00:58:17;;;;;;;1.00;1.00;;;18.70;99.90;;;;;;5057424;28;20236;-68
2022/05/18 01:00:46;;;;;;;0.90;0.90;;;18.70;99.90;;;;;;5054422;28;20270;-69
2022/05/18 01:03:17;;;;;;;0.85;0.80;;;18.70;99.90;;;;;;5058179;28;20225;-66
2022/05/18 01:05:49;;;;;;;0.80;0.80;;;18.70;99.90;;;;;;5071031;28;20302;-67
2022/05/18 01:08:24;;;;;;;0.85;0.85;;;18.60;99.90;;;;;;5067890;28;20215;-70
2022/05/18 01:10:51;;;;;;;1.03;1.03;;;18.60;99.90;;;;;;5055342;28;20228;-69
2022/05/18 01:13:18;;;;;;;0.70;0.70;;;18.60;99.90;;;;;;5055402;28;20246;-68
2022/05/18 01:15:44;;;;;;;0.80;0.80;;;18.60;99.90;;;;;;5052965;28;20244;-67
2022/05/18 01:18:13;;;;;;;0.80;0.80;;;18.60;99.90;;;;;;5051064;28;20283;-68
2022/05/18 01:20:42;;;;;;;0.80;0.80;;;18.60;99.90;;;;;;5053691;28;21068;-69
2022/05/18 01:23:26;;;;;;;0.80;0.80;;;18.60;99.90;;;;;;5069373;28;20192;-66
2022/05/18 01:26:07;;;;;;;0.80;0.80;;;18.50;99.90;;;;;;5061719;28;20243;-65
2022/05/18 01:28:40;;;;;;;0.80;0.80;;;18.60;99.90;;;;;;5076955;28;20258;-69
2022/05/18 01:31:07;;;;;;;0.90;0.90;;;18.50;99.90;;;;;;5092402;28;20271;-68
2022/05/18 01:33:35;;;;;;;0.90;0.90;;;18.50;99.90;;;;;;5093982;28;20212;-66
2022/05/18 01:36:03;;;;;;;0.80;0.80;;;18.60;99.90;;;;;;5060375;28;20204;-68
2022/05/18 01:38:31;;;;;;;1.13;0.90;;;18.50;99.90;;;;;;5074337;28;20317;-69
2022/05/18 01:41:03;;;;;;;1.08;1.08;;;18.50;99.90;;;;;;5073553;28;20230;-69
2022/05/18 01:43:34;;;;;;;0.70;0.70;;;18.50;99.90;;;;;;5048325;28;20240;-69
2022/05/18 01:46:05;;;;;;;1.02;0.93;;;18.40;99.90;;;;;;5054171;28;20247;-69
2022/05/18 01:48:34;;;;;;;1.00;1.00;;;18.50;99.90;;;;;;5053923;28;20206;-69
2022/05/18 01:51:02;;;;;;;0.85;0.85;;;18.40;99.90;;;;;;5053280;28;20224;-69
2022/05/18 01:53:30;;;;;;;0.90;0.90;;;18.30;99.90;;;;;;5053898;28;20208;-67
2022/05/18 01:55:57;;;;;;;0.93;0.93;;;18.30;99.90;;;;;;5054206;28;20838;-70
2022/05/18 01:58:24;;;;;;;0.93;0.93;;;18.30;99.90;;;;;;5053754;28;20231;-71
2022/05/18 02:00:52;;;;;;;1.00;1.00;;;18.40;99.90;;;;;;5041467;28;20327;-68
2022/05/18 02:03:21;;;;;;;0.70;0.70;;;18.40;99.90;;;;;;5054035;28;20681;-70
2022/05/18 02:05:48;;;;;;;0.90;0.90;;;18.40;99.90;;;;;;5053729;28;20212;-69
2022/05/18 02:08:16;;;;;;;0.80;0.80;;;18.40;99.90;;;;;;5053705;28;20295;-69
2022/05/18 02:10:44;;;;;;;0.77;0.77;;;18.30;99.90;;;;;;5053449;28;20564;-67
2022/05/18 02:13:11;;;;;;;0.90;0.90;;;18.30;99.90;;;;;;5060004;28;20227;-69
2022/05/18 02:15:38;;;;;;;0.88;0.88;;;18.30;99.90;;;;;;5051501;28;20260;-69
2022/05/18 02:18:05;;;;;;;0.90;0.90;;;18.30;99.90;;;;;;5064597;28;20287;-70
2022/05/18 02:20:34;;;;;;;0.80;0.80;;;18.30;99.90;;;;;;5058422;28;20237;-68
2022/05/18 02:23:01;;;;;;;0.80;0.80;;;18.30;99.90;;;;;;5056643;28;20734;-68
2022/05/18 02:25:28;;;;;;;0.80;0.80;;;18.30;99.90;;;;;;5056325;28;20236;-69
2022/05/18 02:27:55;;;;;;;1.00;1.00;;;18.20;99.90;;;;;;5061221;28;20253;-70
2022/05/18 02:30:23;;;;;;;0.85;0.85;;;18.30;99.90;;;;;;5052651;28;20251;-70
2022/05/18 02:32:49;;;;;;;0.98;0.98;;;18.20;99.90;;;;;;5052111;28;20207;-71
2022/05/18 02:35:17;;;;;;;2.30;1.00;;;18.10;99.90;;;;;;5034360;28;20224;-68
2022/05/18 02:37:45;;;;;;;1.05;1.05;;;18.00;99.90;;;;;;5046473;28;20254;-71
2022/05/18 02:40:12;;;;;;;0.82;0.82;;;17.90;99.90;;;;;;5059849;28;20283;-69
2022/05/18 02:42:39;;;;;;;1.00;1.00;;;17.90;99.90;;;;;;5049833;28;20211;-70
2022/05/18 02:45:08;;;;;;;0.90;0.90;;;17.90;99.90;;;;;;5063346;28;20204;-69
2022/05/18 02:47:35;;;;;;;0.95;0.95;;;17.90;99.90;;;;;;5050304;28;20209;-68
2022/05/18 02:50:02;;;;;;;0.80;0.80;;;17.90;99.90;;;;;;5035752;28;20252;-69
2022/05/18 02:52:29;;;;;;;0.82;0.82;;;17.80;99.90;;;;;;5050709;28;20250;-67
2022/05/18 02:57:41;;;;;;;1.02;0.93;;;17.90;99.90;;;;;;5054704;28;20274;-69
2022/05/18 03:00:10;;;;;;;0.90;0.90;;;17.80;99.90;;;;;;5048840;28;20320;-67
2022/05/18 03:02:36;;;;;;;1.20;1.10;;;17.80;99.90;;;;;;5053108;28;20204;-69
2022/05/18 03:05:04;;;;;;;0.90;0.90;;;17.80;99.90;;;;;;5045819;28;20304;-68
2022/05/18 03:07:31;;;;;;;0.77;0.77;;;17.90;99.90;;;;;;5053203;28;20242;-70
2022/05/18 03:10:00;;;;;;;0.90;0.77;;;17.90;99.90;;;;;;5046871;28;20216;-69
2022/05/18 03:12:27;;;;;;;0.90;0.90;;;17.90;99.90;;;;;;5053069;28;20200;-69
2022/05/18 03:14:53;;;;;;;0.80;0.80;;;17.90;99.90;;;;;;5053522;28;20323;-68
2022/05/18 03:17:20;;;;;;;0.85;0.85;;;17.90;99.90;;;;;;5053912;28;20204;-69
2022/05/18 03:19:47;;;;;;;0.93;0.93;;;17.80;99.90;;;;;;5053733;28;20259;-68
2022/05/18 03:25:00;;;;;;;0.80;0.80;;;17.80;99.90;;;;;;5070267;28;20311;-70
2022/05/18 03:27:27;;;;;;;0.90;0.90;;;17.80;99.90;;;;;;5064499;28;20246;-69
2022/05/18 03:29:53;;;;;;;1.10;1.00;;;17.80;99.90;;;;;;5058168;28;20284;-68
2022/05/18 03:32:22;;;;;;;0.90;0.90;;;17.80;99.90;;;;;;5042639;28;20228;-68
2022/05/18 03:34:50;;;;;;;0.90;0.90;;;17.80;99.90;;;;;;5046706;28;20294;-69
2022/05/18 03:37:17;;;;;;;0.98;0.98;;;17.80;99.90;;;;;;5065883;28;20204;-69
2022/05/18 03:39:45;;;;;;;0.80;0.80;;;17.80;99.90;;;;;;5067538;28;20287;-65
2022/05/18 03:42:15;;;;;;;0.90;0.90;;;17.80;99.90;;;;;;5068111;28;20242;-68
2022/05/18 03:44:42;;;;;;;0.98;0.90;;;17.80;99.90;;;;;;5066992;28;20207;-68
2022/05/18 03:47:09;;;;;;;0.80;0.80;;;17.80;99.90;;;;;;5069999;28;20239;-69
2022/05/18 03:49:36;;;;;;;0.90;0.90;;;17.80;99.90;;;;;;5069487;28;20713;-69
2022/05/18 03:52:04;;;;;;;0.80;0.80;;;17.80;99.90;;;;;;5066338;28;20286;-69
2022/05/18 03:54:31;;;;;;;1.85;0.90;;;17.80;99.90;;;;;;5072233;28;20268;-67
2022/05/18 03:56:58;;;;;;;0.90;0.90;;;17.80;99.90;;;;;;5072358;28;20203;-69
2022/05/18 03:59:27;;;;;;;0.80;0.80;;;17.70;99.90;;;;;;5072295;28;20317;-67
2022/05/18 04:01:54;;;;;;;0.95;0.90;;;17.70;99.90;;;;;;5071886;28;20287;-69
2022/05/18 04:04:21;;;;;;;0.80;0.80;;;17.70;99.90;;;;;;5056135;28;20204;-68
2022/05/18 04:06:48;;;;;;;0.60;0.60;;;17.70;99.90;;;;;;5036158;28;20239;-68
2022/05/18 04:09:15;;;;;;;0.90;0.90;;;17.80;99.90;;;;;;5052608;28;20312;-69
2022/05/18 04:11:41;;;;;;;0.70;0.70;;;17.80;99.90;;;;;;5051708;28;20207;-70
2022/05/18 04:14:08;;;;;;;0.87;0.87;;;17.80;99.90;;;;;;5051968;28;20214;-70
2022/05/18 04:16:37;;;;;;;0.80;0.80;;;17.80;99.90;;;;;;5048521;28;20231;-71
2022/05/18 04:19:03;;;;;;;0.70;0.70;;;17.90;99.90;;;;;;5045278;28;20255;-69
2022/05/18 04:21:31;;;;;;;0.88;0.88;;;17.90;99.90;;;;;;5051711;28;20663;-71
2022/05/18 04:23:58;;;;;;;0.80;0.80;;;17.90;99.90;;;;;;5052280;28;20662;-72
2022/05/18 04:26:25;;;;;;;0.80;0.80;;;17.90;99.90;;;;;;5053037;28;20239;-68
2022/05/18 04:28:52;;;;;;;0.90;0.90;;;18.00;99.90;;;;;;5043316;28;21657;-71
2022/05/18 04:31:19;;;;;;;0.70;0.70;;;18.00;99.90;;;;;;5045156;28;20293;-71
2022/05/18 04:33:47;;;;;;;0.75;0.75;;;18.00;99.90;;;;;;5036511;28;20235;-71
2022/05/18 04:36:14;;;;;;;0.80;0.80;;;18.00;99.90;;;;;;5053482;28;20290;-70
2022/05/18 04:38:41;;;;;;;0.70;0.70;;;18.10;99.90;;;;;;5052021;28;20291;-71
2022/05/18 04:41:08;;;;;;;0.98;0.98;;;18.10;99.90;;;;;;5051179;28;20305;-70
2022/05/18 04:43:35;;;;;;;0.90;0.90;;;18.10;99.90;;;;;;5051960;28;20230;-72
2022/05/18 04:46:02;;;;;;;1.13;1.00;;;18.00;99.90;;;;;;5052832;28;20239;-71
2022/05/18 04:48:31;;;;;;;1.10;1.10;;;17.90;99.90;;;;;;5053037;28;20286;-73
2022/05/18 04:50:59;;;;;;;0.97;0.97;;;17.90;99.90;;;;;;5065116;28;20233;-69
2022/05/18 04:53:26;;;;;;;1.10;1.10;;;17.90;99.90;;;;;;5070232;28;20199;-71
2022/05/18 04:55:53;;;;;;;1.10;1.10;;;17.90;99.90;;;;;;5049757;28;20277;-71
2022/05/18 04:58:20;;;;;;;1.00;1.00;;;18.00;99.90;;;;;;5050971;28;20210;-69
2022/05/18 05:00:50;;;;;;;1.00;1.00;;;18.10;99.90;;;;;;5050071;28;20271;-72
2022/05/18 05:03:17;;;;;;;1.05;1.05;;;18.10;99.90;;;;;;5051216;28;20200;-72
2022/05/18 05:05:44;;;;;;;1.00;1.00;;;18.10;99.90;;;;;;5048211;28;20227;-69
2022/05/18 05:08:12;;;;;;;0.98;0.98;;;18.10;99.90;;;;;;5038935;28;20569;-72
2022/05/18 05:10:39;;;;;;;0.80;0.80;;;18.20;99.90;;;;;;5047597;28;20319;-70
2022/05/18 05:13:06;;;;;;;1.17;0.90;;;18.30;99.90;;;;;;5040430;28;20242;-73
2022/05/18 05:15:33;;;;;;;0.80;0.80;;;18.40;99.90;;;;;;5053736;28;20208;-69
2022/05/18 05:18:00;;;;;;;0.90;0.90;;;18.60;99.90;;;;;;5051901;28;20210;-72
2022/05/18 05:20:27;;;;;;;0.80;0.80;;;18.70;99.90;;;;;;5049291;28;20262;-70
2022/05/18 05:22:54;;;;;;;0.90;0.90;;;18.90;99.90;;;;;;5047105;28;20210;-70
2022/05/18 05:25:22;;;;;;;0.80;0.80;;;19.00;99.90;;;;;;5054623;28;20872;-67
2022/05/18 05:27:49;;;;;;;1.27;1.10;;;19.20;99.90;;;;;;5060303;28;20299;-71
2022/05/18 05:30:16;;;;;;;0.93;0.93;;;19.30;99.90;;;;;;5059122;28;20254;-71
2022/05/18 05:32:43;;;;;;;0.90;0.90;;;19.50;99.90;;;;;;5050492;28;20208;-70
2022/05/18 05:35:13;;;;;;;1.00;1.00;;;19.70;99.90;;;;;;5053069;28;20199;-71
2022/05/18 05:37:41;;;;;;;0.80;0.80;;;19.70;99.90;;;;;;5056645;28;20224;-73
2022/05/18 05:40:18;;;;;;;0.90;0.90;;;19.90;99.90;;;;;;5056949;28;20251;-72
2022/05/18 05:42:46;;;;;;;1.00;1.00;;;20.00;99.90;;;;;;5060975;28;20239;-72
2022/05/18 05:45:14;;;;;;;0.80;0.80;;;20.20;99.90;;;;;;5061402;28;20212;-72
2022/05/18 05:47:41;;;;;;;0.90;0.90;;;20.40;99.90;;;;;;5056132;28;20218;-72
2022/05/18 05:50:09;;;;;;;0.93;0.93;;;20.60;99.90;;;;;;5060564;28;20311;-69
2022/05/18 05:52:36;;;;;;;0.90;0.90;;;20.70;99.90;;;;;;5048924;28;20280;-70
2022/05/18 05:55:04;;;;;;;0.98;0.98;;;21.00;99.90;;;;;;5051936;28;20236;-70
2022/05/18 05:57:31;;;;;;;1.02;0.95;;;21.10;99.90;;;;;;5043464;28;20831;-70
2022/05/18 06:00:02;;;;;;;1.08;1.08;;;21.30;99.90;;;;;;5066098;22;20226;-62
2022/05/18 06:02:29;;;;;;;1.20;1.10;;;21.50;99.90;;;;;;5053177;28;20559;-64
2022/05/18 06:04:56;;;;;;;0.90;0.90;;;21.60;99.90;;;;;;5054070;28;20204;-64
2022/05/18 06:07:23;;;;;;;1.00;1.00;;;21.80;99.90;;;;;;5051837;28;20237;-63
2022/05/18 06:09:50;;;;;;;1.13;0.95;;;21.90;99.90;;;;;;5055505;28;20641;-64
2022/05/18 06:12:17;;;;;;;1.15;0.80;;;22.00;99.90;;;;;;5046096;28;20208;-64
2022/05/18 06:14:45;;;;;;;1.00;1.00;;;22.10;99.90;;;;;;5046100;28;20647;-64
2022/05/18 06:17:13;;;;;;;0.80;0.80;;;22.30;99.90;;;;;;5051845;28;20203;-64
2022/05/18 06:19:40;;;;;;;1.00;1.00;;;22.40;99.90;;;;;;5052408;28;20224;-63
2022/05/18 06:22:07;;;;;;;0.70;0.70;;;22.60;99.90;;;;;;5052852;28;20574;-63
2022/05/18 06:24:34;;;;;;;0.85;0.85;;;22.70;99.90;;;;;;5053463;28;20204;-64
2022/05/18 06:27:02;;;;;;;0.80;0.80;;;22.90;99.90;;;;;;5043045;28;20300;-64
2022/05/18 06:29:30;;;;;;;1.00;1.00;;;23.00;99.90;;;;;;5045285;28;20303;-63
2022/05/18 06:31:57;;;;;;;0.85;0.85;;;23.10;99.90;;;;;;5050524;28;20230;-64
2022/05/18 06:34:25;;;;;;;1.05;1.05;;;23.20;99.90;;;;;;5054758;28;20706;-64
2022/05/18 06:36:53;;;;;;;1.02;1.02;;;23.30;99.90;;;;;;5055153;28;20254;-64
2022/05/18 06:39:20;;;;;;;1.27;1.17;;;23.40;99.90;;;;;;5051452;28;20220;-63
2022/05/18 06:41:48;;;;;;;1.30;1.27;;;23.50;99.90;;;;;;5053979;28;20274;-64
2022/05/18 06:44:16;;;;;;;1.30;1.20;;;23.40;99.90;;;;;;5052086;28;20219;-64
2022/05/18 06:46:43;;;;;;;1.50;1.40;;;23.30;99.90;;;;;;5055139;28;20231;-65
2022/05/18 06:49:12;;;;;;;1.40;1.30;;;23.20;99.90;;;;;;5052921;28;20311;-63
2022/05/18 06:51:42;;;;;;;1.20;1.10;;;23.30;99.90;;;;;;5054837;28;20228;-63
2022/05/18 06:54:10;;;;;;;1.15;1.10;;;23.40;99.90;;;;;;5055360;28;20216;-64
2022/05/18 06:56:39;;;;;;;1.20;1.10;;;23.50;99.90;;;;;;5061301;28;20256;-64
2022/05/18 06:59:07;;;;;;;1.33;1.30;;;23.60;99.90;;;;;;5064034;28;20223;-64
2022/05/18 07:01:34;;;;;;;1.00;1.00;;;23.60;99.90;;;;;;5064289;28;20216;-65
2022/05/18 07:04:02;;;;;;;1.23;1.20;;;23.50;99.90;;;;;;5058570;28;20260;-64
2022/05/18 07:06:31;;;;;;;0.90;0.90;;;23.60;99.90;;;;;;5053729;28;20212;-66
2022/05/18 07:08:59;;;;;;;1.98;1.33;;;23.60;99.90;;;;;;5053532;28;20223;-65
2022/05/18 07:11:27;;;;;;;1.20;1.10;;;23.60;99.90;;;;;;5055382;28;20231;-64
2022/05/18 07:13:55;;;;;;;1.00;1.00;;;23.60;99.90;;;;;;5041109;28;20200;-65
2022/05/18 07:16:23;;;;;;;1.02;1.02;;;23.70;99.90;;;;;;5039166;28;20196;-65
2022/05/18 07:18:50;;;;;;;1.10;1.10;;;23.90;99.90;;;;;;5054255;28;20231;-64
2022/05/18 07:21:18;;;;;;;1.27;1.25;;;23.90;99.90;;;;;;5053451;28;20293;-63
2022/05/18 07:23:45;;;;;;;1.17;1.17;;;23.90;99.90;;;;;;5053901;28;20535;-63
2022/05/18 07:26:14;;;;;;;1.13;1.13;;;24.00;99.90;;;;;;5053524;28;20298;-64
2022/05/18 07:28:42;;;;;;;1.40;1.30;;;24.00;99.90;;;;;;5053466;28;20295;-64
2022/05/18 07:31:10;;;;;;;1.10;1.00;;;24.00;99.90;;;;;;5052297;28;20255;-64
2022/05/18 07:33:37;;;;;;;0.90;0.90;;;24.00;99.90;;;;;;5053967;28;20207;-64
2022/05/18 07:36:05;;;;;;;1.10;1.10;;;24.10;99.90;;;;;;5053060;28;20294;-65
2022/05/18 07:38:33;;;;;;;1.10;1.10;;;24.10;99.90;;;;;;5053035;28;20370;-64
2022/05/18 07:41:00;;;;;;;1.50;1.40;;;24.20;99.90;;;;;;5052511;28;20656;-64
2022/05/18 07:43:29;;;;;;;1.05;1.05;;;24.30;99.90;;;;;;5053010;28;20756;-64
2022/05/18 07:45:57;;;;;;;1.10;1.10;;;24.40;99.90;;;;;;5053224;28;20345;-64
2022/05/18 07:48:25;;;;;;;1.38;1.23;;;24.40;99.90;;;;;;5052835;28;20643;-64
2022/05/18 07:50:52;;;;;;;0.90;0.90;;;24.40;99.90;;;;;;5051874;28;20263;-64
2022/05/18 07:53:20;;;;;;;1.27;1.23;;;24.50;99.90;;;;;;5052591;28;20613;-64
2022/05/18 07:55:47;;;;;;;1.30;1.20;;;24.60;99.90;;;;;;5052672;28;20200;-64
2022/05/18 07:58:16;;;;;;;1.15;1.15;;;24.70;99.90;;;;;;5050021;28;20200;-63
2022/05/18 08:00:45;;;;;;;1.25;1.15;;;24.70;99.90;;;;;;5051887;28;20228;-64
2022/05/18 08:03:12;;;;;;;1.20;1.17;;;24.80;99.90;;;;;;5052925;28;20656;-65
2022/05/18 08:05:40;;;;;;;1.00;1.00;;;24.80;99.90;;;;;;5052975;28;20204;-63
2022/05/18 08:08:10;;;;;;;1.10;1.10;;;24.80;99.90;;;;;;5052938;28;20262;-63
2022/05/18 08:16:08;;;;;;;1.05;1.00;;;25.00;99.90;;;;;;5053302;28;20203;-65
2022/05/18 08:18:34;;;;;;;1.10;1.10;;;25.10;99.90;;;;;;5053065;28;20291;-65
2022/05/18 08:21:01;;;;;;;1.10;1.10;;;25.20;99.90;;;;;;5052174;28;20261;-64
2022/05/18 08:23:28;;;;;;;1.10;1.10;;;25.30;99.90;;;;;;5052444;28;20310;-63
2022/05/18 08:25:56;;;;;;;1.52;0.98;;;25.40;99.90;;;;;;5053082;28;20647;-63
2022/05/18 08:28:24;;;;;;;1.48;1.38;;;25.50;99.90;;;;;;5052247;28;20253;-62
2022/05/18 08:30:52;;;;;;;2.10;1.10;;;25.50;99.90;;;;;;5051559;28;20673;-66
2022/05/18 08:33:21;;;;;;;1.10;1.10;;;25.50;99.90;;;;;;5053048;28;20206;-64
2022/05/18 08:35:48;;;;;;;1.00;1.00;;;25.60;99.90;;;;;;5053867;28;20200;-65
2022/05/18 08:38:15;;;;;;;1.10;1.10;;;25.70;99.90;;;;;;5056992;28;20207;-63
2022/05/18 08:40:49;;;;;;;1.20;1.10;;;25.90;99.90;;;;;;5054456;28;20281;-63
2022/05/18 08:43:23;;;;;;;1.27;1.20;;;26.00;99.90;;;;;;5056765;28;20583;-64
2022/05/18 08:46:00;;;;;;;1.13;1.13;;;26.10;99.90;;;;;;5054655;28;20230;-63
2022/05/18 08:48:41;;;;;;;1.15;1.10;;;26.10;99.90;;;;;;5056749;28;20330;-65
2022/05/18 08:51:29;;;;;;;1.00;1.00;;;26.20;99.90;;;;;;5060802;28;20220;-65
2022/05/18 08:54:05;;;;;;;1.20;1.20;;;26.20;99.90;;;;;;5059386;28;21074;-64
2022/05/18 08:56:37;;;;;;;1.33;1.23;;;26.30;99.90;;;;;;5054927;28;20226;-63
2022/05/18 08:59:10;;;;;;;1.02;1.02;;;26.40;99.90;;;;;;5056371;28;20696;-65
2022/05/18 09:01:40;;;;;;;1.27;1.20;;;26.50;99.90;;;;;;5057509;28;22139;-65
2022/05/18 09:04:12;;;;;;;1.33;1.30;;;26.50;99.90;;;;;;5057409;28;20192;-63
2022/05/18 09:06:46;;;;;;;1.33;1.27;;;26.60;99.90;;;;;;5053429;28;20295;-65
2022/05/18 09:11:59;;;;;;;1.30;1.20;;;26.50;99.90;;;;;;5050775;28;20183;-64
2022/05/18 09:14:30;;;;;;;1.27;1.17;;;26.70;99.90;;;;;;5051572;28;20222;-64
2022/05/18 09:17:08;;;;;;;1.35;1.25;;;26.80;99.90;;;;;;5051424;28;20666;-64
2022/05/18 09:19:47;;;;;;;1.38;1.20;;;26.90;99.90;;;;;;5051339;28;20261;-65
2022/05/18 09:22:23;;;;;;;1.92;1.20;;;27.00;99.90;;;;;;5050661;28;20671;-66
2022/05/18 09:25:02;;;;;;;1.20;1.20;;;27.20;99.90;;;;;;5051658;28;20219;-64
2022/05/18 09:27:44;;;;;;;1.20;1.20;;;27.20;99.90;;;;;;5051818;28;20235;-65
2022/05/18 09:30:18;;;;;;;0.90;0.90;;;27.30;99.90;;;;;;5055951;28;20220;-65
2022/05/18 09:33:06;;;;;;;0.85;0.85;;;27.30;99.90;;;;;;5052810;28;20231;-63
2022/05/18 09:35:54;;;;;;;1.05;1.00;;;27.40;99.90;;;;;;5054043;28;20208;-63
2022/05/18 09:38:28;;;;;;;1.00;1.00;;;27.40;99.90;;;;;;5051204;28;20287;-64
2022/05/18 09:40:55;;;;;;;0.90;0.90;;;27.50;99.90;;;;;;5050407;28;20671;-64
2022/05/18 09:43:31;;;;;;;1.00;1.00;;;27.60;99.90;;;;;;5051138;28;20231;-63
2022/05/18 09:45:59;;;;;;;1.00;1.00;;;27.60;99.90;;;;;;5051047;28;20253;-62
2022/05/18 09:48:34;;;;;;;0.80;0.80;;;27.70;99.90;;;;;;5051190;28;20573;-65
2022/05/18 09:51:03;;;;;;;1.23;1.13;;;27.70;99.90;;;;;;5050683;28;20216;-63
2022/05/18 09:53:30;;;;;;;1.00;1.00;;;27.80;99.90;;;;;;5051314;28;20250;-65
2022/05/18 09:55:57;;;;;;;1.23;1.10;;;27.90;99.90;;;;;;5054766;28;20239;-63
2022/05/18 09:58:30;;;;;;;1.00;1.00;;;28.00;99.90;;;;;;5052240;28;20229;-64
2022/05/18 10:09:37;;;;;;;0.90;0.90;;;28.10;99.90;;;;;;5054171;28;20354;-65
2022/05/18 10:12:17;;;;;;;0.95;0.95;;;28.20;99.90;;;;;;5054186;28;20184;-64
2022/05/18 10:14:48;;;;;;;1.75;1.10;;;28.40;99.90;;;;;;5054162;28;20294;-62
2022/05/18 10:17:16;;;;;;;0.90;0.90;;;28.50;99.90;;;;;;5054603;28;20257;-66
2022/05/18 10:19:46;;;;;;;0.90;0.90;;;28.60;99.90;;;;;;5054272;28;20247;-64
2022/05/18 10:22:20;;;;;;;0.80;0.80;;;28.70;99.90;;;;;;5053489;28;20306;-65
2022/05/18 10:24:53;;;;;;;0.93;0.93;;;28.70;99.90;;;;;;5053982;28;20676;-63
2022/05/18 10:27:25;;;;;;;1.17;1.17;;;28.50;99.90;;;;;;5054104;28;20204;-65
2022/05/18 10:30:05;;;;;;;0.90;0.90;;;28.60;99.90;;;;;;5053900;28;20545;-63
2022/05/18 10:32:33;;;;;;;0.90;0.90;;;28.60;99.90;;;;;;5053692;28;20249;-65
2022/05/18 10:35:01;;;;;;;1.00;1.00;;;28.70;99.90;;;;;;5054474;28;20200;-65
2022/05/18 10:37:32;;;;;;;0.90;0.90;;;28.70;99.90;;;;;;5053876;28;20685;-63
2022/05/18 10:40:02;;;;;;;0.80;0.80;;;28.70;99.90;;;;;;5055344;28;20234;-65
2022/05/18 10:42:32;;;;;;;1.20;1.10;;;28.60;99.90;;;;;;5054849;28;20303;-64
2022/05/18 10:45:01;;;;;;;0.80;0.80;;;28.60;99.90;;;;;;5054813;28;20299;-64
2022/05/18 10:47:33;;;;;;;1.10;1.00;;;28.80;99.90;;;;;;5055544;28;20214;-65
2022/05/18 10:50:28;;;;;;;0.80;0.80;;;28.80;99.90;;;;;;5054383;28;20260;-64
2022/05/18 10:53:00;;;;;;;1.15;1.15;;;28.90;99.90;;;;;;5053567;28;20235;-64
2022/05/18 10:55:29;;;;;;;0.80;0.80;;;29.00;99.90;;;;;;5059432;28;20220;-64
2022/05/18 10:58:00;;;;;;;0.90;0.90;;;29.20;99.90;;;;;;5057711;28;20219;-65
2022/05/18 11:00:36;;;;;;;0.90;0.90;;;29.20;99.90;;;;;;5056532;28;20236;-65
2022/05/18 11:03:14;;;;;;;0.93;0.93;;;29.10;99.90;;;;;;5053825;28;20250;-65
2022/05/18 11:05:45;;;;;;;1.02;1.02;;;29.00;99.90;;;;;;5052766;28;20196;-65
2022/05/18 11:08:16;;;;;;;0.90;0.90;;;28.90;99.90;;;;;;5053746;28;20204;-64
2022/05/18 11:10:50;;;;;;;1.27;1.20;;;28.90;99.90;;;;;;5052835;28;20224;-65
2022/05/18 11:13:25;;;;;;;1.00;1.00;;;29.10;99.90;;;;;;5053345;28;20638;-64
2022/05/18 11:16:02;;;;;;;0.82;0.82;;;29.10;99.90;;;;;;5053585;28;20206;-65
2022/05/18 11:18:38;;;;;;;0.85;0.85;;;29.30;99.90;;;;;;5053532;28;20615;-65
2022/05/18 11:21:15;;;;;;;0.90;0.90;;;29.40;99.90;;;;;;5053091;28;20314;-64
2022/05/18 11:23:55;;;;;;;0.90;0.90;;;29.50;99.90;;;;;;5053457;28;20261;-64
2022/05/18 11:26:31;;;;;;;1.13;1.00;;;29.70;99.90;;;;;;5053508;28;20216;-64
2022/05/18 11:29:05;;;;;;;0.98;0.98;;;29.60;99.90;;;;;;5053849;28;20217;-63
2022/05/18 11:31:56;;;;;;;0.90;0.90;;;29.60;99.90;;;;;;5053102;28;20284;-64
2022/05/18 11:34:32;;;;;;;0.90;0.90;;;29.60;99.90;;;;;;5053029;28;20221;-64
2022/05/18 11:37:11;;;;;;;1.25;1.15;;;29.70;99.90;;;;;;5053475;28;20196;-64
2022/05/18 11:39:45;;;;;;;0.98;0.90;;;29.90;99.90;;;;;;5052906;28;20314;-64
2022/05/18 11:42:24;;;;;;;0.90;0.90;;;29.80;99.90;;;;;;5052915;28;20194;-63
2022/05/18 11:45:05;;;;;;;1.05;0.95;;;29.90;99.90;;;;;;5053139;28;20283;-63
2022/05/18 11:48:11;;;;;;;0.90;0.90;;;30.00;99.90;;;;;;5052853;28;20199;-64
2022/05/18 11:50:47;;;;;;;0.80;0.80;;;30.10;99.90;;;;;;5038450;28;20313;-66
2022/05/18 11:53:27;;;;;;;1.02;1.00;;;30.10;99.90;;;;;;5053192;28;20590;-63
2022/05/18 11:56:08;;;;;;;0.80;0.80;;;30.20;99.90;;;;;;5052973;28;20290;-64
2022/05/18 11:59:05;;;;;;;0.80;0.80;;;30.30;99.90;;;;;;5050399;28;20298;-64
2022/05/18 12:01:42;;;;;;;1.45;1.00;;;30.30;99.90;;;;;;5052486;28;20281;-65
2022/05/18 12:04:28;;;;;;;1.05;1.00;;;30.30;99.90;;;;;;5052535;28;20693;-64
2022/05/18 12:07:06;;;;;;;1.05;1.05;;;30.40;99.90;;;;;;5052500;28;20235;-63
2022/05/18 12:10:09;;;;;;;1.05;1.05;;;30.20;99.90;;;;;;5052513;28;20572;-64
2022/05/18 12:12:44;;;;;;;1.00;1.00;;;30.00;99.90;;;;;;5021519;28;20773;-64
2022/05/18 12:15:17;;;;;;;1.05;1.05;;;30.20;99.90;;;;;;5052017;28;20231;-64
2022/05/18 12:17:49;;;;;;;1.27;1.10;;;30.20;99.90;;;;;;5051909;28;20295;-65
2022/05/18 12:20:23;;;;;;;0.90;0.90;;;30.30;99.90;;;;;;5052742;28;20262;-65
2022/05/18 12:22:53;;;;;;;0.90;0.90;;;30.50;99.90;;;;;;5086321;22;20231;-70
2022/05/18 12:25:24;;;;;;;1.27;1.20;;;30.60;99.90;;;;;;5057378;28;20200;-70
2022/05/18 12:27:55;;;;;;;1.65;1.55;;;30.60;99.90;;;;;;5065302;28;20243;-70
2022/05/18 12:30:25;;;;;;;0.90;0.90;;;30.60;99.90;;;;;;5061447;28;20189;-70
2022/05/18 12:32:53;;;;;;;1.10;1.10;;;30.50;99.90;;;;;;5055620;28;20220;-70
2022/05/18 12:35:25;;;;;;;1.10;1.10;;;30.40;99.90;;;;;;5059535;28;20299;-70
2022/05/18 12:38:03;;;;;;;0.90;0.90;;;30.50;99.90;;;;;;5061256;28;20193;-68
2022/05/18 12:40:47;;;;;;;1.00;1.00;;;30.60;99.90;;;;;;5058277;28;20188;-70
2022/05/18 12:43:22;;;;;;;1.10;1.10;;;30.70;99.90;;;;;;5054778;28;20263;-69
2022/05/18 12:45:50;;;;;;;1.00;1.00;;;30.40;99.90;;;;;;5054162;28;20262;-69
2022/05/18 12:48:23;;;;;;;1.00;1.00;;;30.40;99.90;;;;;;5054010;28;20311;-69
2022/05/18 12:51:12;;;;;;;1.20;1.10;;;30.40;99.90;;;;;;5053931;28;20203;-69
2022/05/18 12:53:58;;;;;;;0.82;0.82;;;30.50;99.90;;;;;;5063832;28;20192;-69
2022/05/18 12:56:47;;;;;;;0.90;0.90;;;30.40;99.90;;;;;;5061909;28;20215;-71
2022/05/18 12:59:18;;;;;;;0.85;0.85;;;30.40;99.90;;;;;;5054415;28;20276;-70
2022/05/18 13:01:48;;;;;;;0.80;0.80;;;30.40;99.90;;;;;;5053109;28;20258;-68
2022/05/18 13:04:40;;;;;;;0.90;0.90;;;30.40;99.90;;;;;;5053485;28;20281;-70
2022/05/18 13:07:26;;;;;;;1.00;1.00;;;30.70;99.90;;;;;;5053820;28;20294;-69
2022/05/18 13:10:05;;;;;;;1.00;1.00;;;30.80;99.90;;;;;;5053565;28;20516;-70
2022/05/18 13:12:48;;;;;;;1.05;0.90;;;30.90;99.90;;;;;;5055079;28;20235;-69
2022/05/18 13:15:39;;;;;;;1.00;1.00;;;31.00;99.90;;;;;;5071504;28;20267;-68
2022/05/18 13:18:14;;;;;;;1.00;1.00;;;31.00;99.90;;;;;;5069186;28;20216;-69
2022/05/18 13:20:52;;;;;;;1.10;1.10;;;30.80;99.90;;;;;;5069089;28;20271;-69
2022/05/18 13:23:51;;;;;;;1.10;1.10;;;30.60;99.90;;;;;;5067661;28;20315;-69
2022/05/18 13:26:27;;;;;;;1.15;1.02;;;30.50;99.90;;;;;;5055399;28;20208;-68
2022/05/18 13:28:57;;;;;;;1.05;1.05;;;30.70;99.90;;;;;;5052923;28;20196;-71